Time;durP1;ratioP1;P1;durP2;ratioP2;P2;SDS_P1;SDS_P2;PMS_P1;PMS_P2;Temp;Humidity;BMP_temperature;BMP_pressure;BME280_temperature;BME280_humidity;BME280_pressure;Samples;Min_cycle;Max_cycle;Signal;HPM_P1;HPM_P2
2022/05/09 00:00:31;;;;;;;;;5.75;4.25;;;;;;;;5016253;28;9449;-75
2022/05/09 00:02:59;;;;;;;;;5.25;5.00;;;;;;;;5016891;28;9531;-73
2022/05/09 00:05:28;;;;;;;;;4.75;4.75;;;;;;;;5019085;28;10866;-74
2022/05/09 00:07:57;;;;;;;;;9.25;9.25;;;;;;;;5017116;28;10305;-74
2022/05/09 00:10:26;;;;;;;;;9.25;7.00;;;;;;;;5022014;28;9886;-75
2022/05/09 00:12:54;;;;;;;;;6.00;6.00;;;;;;;;5017988;28;10123;-75
2022/05/09 00:15:21;;;;;;;;;7.25;7.25;;;;;;;;5020413;28;10785;-74
2022/05/09 00:17:49;;;;;;;;;9.25;9.25;;;;;;;;5016758;28;10196;-75
2022/05/09 00:20:18;;;;;;;;;9.00;8.25;;;;;;;;5020669;28;10295;-76
2022/05/09 00:22:51;;;;;;;;;5.25;5.25;;;;;;;;5018417;28;10358;-74
2022/05/09 00:25:21;;;;;;;;;8.00;6.00;;;;;;;;5018131;28;10058;-74
2022/05/09 00:27:48;;;;;;;;;4.25;4.25;;;;;;;;5021616;28;9625;-75
2022/05/09 00:30:16;;;;;;;;;6.75;6.75;;;;;;;;5019277;28;9727;-76
2022/05/09 00:32:43;;;;;;;;;5.00;5.00;;;;;;;;5020911;28;9749;-75
2022/05/09 00:35:12;;;;;;;;;4.50;4.50;;;;;;;;5018953;28;9747;-75
2022/05/09 00:37:40;;;;;;;;;6.50;6.50;;;;;;;;5017788;28;9962;-74
2022/05/09 00:40:09;;;;;;;;;5.50;5.50;;;;;;;;5017528;28;9907;-75
2022/05/09 00:42:40;;;;;;;;;6.25;6.25;;;;;;;;5013462;28;9961;-74
2022/05/09 00:45:09;;;;;;;;;11.25;8.00;;;;;;;;5021343;28;10876;-73
2022/05/09 00:47:37;;;;;;;;;6.50;6.50;;;;;;;;5019826;28;10215;-77
2022/05/09 00:50:07;;;;;;;;;9.75;8.50;;;;;;;;5020808;28;10120;-74
2022/05/09 00:52:37;;;;;;;;;6.75;4.50;;;;;;;;5020231;28;10277;-74
2022/05/09 00:55:08;;;;;;;;;7.50;7.50;;;;;;;;5019674;28;10397;-73
2022/05/09 00:57:39;;;;;;;;;8.75;7.00;;;;;;;;5018582;28;11527;-76
2022/05/09 01:00:10;;;;;;;;;7.00;7.00;;;;;;;;5020918;28;10404;-76
2022/05/09 01:02:40;;;;;;;;;9.00;7.00;;;;;;;;5016325;28;10362;-74
2022/05/09 01:05:09;;;;;;;;;5.75;5.75;;;;;;;;5015888;28;10431;-75
2022/05/09 01:07:36;;;;;;;;;8.00;8.00;;;;;;;;5014365;28;10413;-73
2022/05/09 01:10:04;;;;;;;;;9.00;7.50;;;;;;;;5015963;28;10423;-73
2022/05/09 01:12:33;;;;;;;;;8.50;8.50;;;;;;;;5013180;28;10605;-74
2022/05/09 01:15:07;;;;;;;;;9.00;7.75;;;;;;;;5002627;28;11482;-75
2022/05/09 01:17:39;;;;;;;;;9.25;7.75;;;;;;;;5020444;28;10586;-74
2022/05/09 01:20:08;;;;;;;;;8.00;8.00;;;;;;;;5018332;28;10699;-74
2022/05/09 01:22:38;;;;;;;;;12.50;11.50;;;;;;;;5015318;28;10641;-74
2022/05/09 01:25:07;;;;;;;;;11.00;8.00;;;;;;;;5019327;28;10925;-74
2022/05/09 01:27:40;;;;;;;;;8.00;8.00;;;;;;;;5020441;28;10823;-75
2022/05/09 01:30:10;;;;;;;;;8.75;8.75;;;;;;;;5021856;28;10947;-76
2022/05/09 01:32:41;;;;;;;;;11.25;9.50;;;;;;;;5018186;28;11005;-75
2022/05/09 01:35:12;;;;;;;;;7.75;7.75;;;;;;;;5020838;28;11208;-75
2022/05/09 01:37:42;;;;;;;;;11.25;11.25;;;;;;;;5019864;28;10942;-74
2022/05/09 01:40:10;;;;;;;;;7.50;7.50;;;;;;;;5020104;28;11379;-74
2022/05/09 01:42:37;;;;;;;;;10.50;10.50;;;;;;;;5003950;28;10914;-74
2022/05/09 01:45:07;;;;;;;;;9.00;8.00;;;;;;;;5024834;28;10985;-74
2022/05/09 01:50:19;;;;;;;;;11.50;9.50;;;;;;;;5023939;28;11048;-75
2022/05/09 01:52:48;;;;;;;;;17.00;13.25;;;;;;;;4989028;28;11188;-74
2022/05/09 01:55:15;;;;;;;;;10.00;10.00;;;;;;;;5023825;28;11275;-75
2022/05/09 01:57:42;;;;;;;;;11.75;11.50;;;;;;;;5021004;28;11298;-75
2022/05/09 02:00:11;;;;;;;;;13.50;11.25;;;;;;;;5032377;28;11473;-75
2022/05/09 02:02:39;;;;;;;;;13.00;9.25;;;;;;;;5022015;28;11205;-74
2022/05/09 02:05:07;;;;;;;;;12.50;12.50;;;;;;;;5019990;28;11195;-74
2022/05/09 02:07:35;;;;;;;;;16.25;11.25;;;;;;;;5020438;28;11310;-75
2022/05/09 02:10:04;;;;;;;;;11.00;8.50;;;;;;;;5021619;28;11181;-76
2022/05/09 02:12:31;;;;;;;;;11.50;9.50;;;;;;;;5019088;28;11148;-74
2022/05/09 02:14:59;;;;;;;;;11.00;9.00;;;;;;;;5032208;28;11021;-76
2022/05/09 02:17:26;;;;;;;;;15.00;13.50;;;;;;;;5022296;28;11136;-74
2022/05/09 02:19:55;;;;;;;;;12.25;8.00;;;;;;;;5021668;28;11300;-76
2022/05/09 02:22:22;;;;;;;;;10.00;10.00;;;;;;;;5024858;28;11299;-76
2022/05/09 02:24:52;;;;;;;;;9.50;9.50;;;;;;;;5013056;28;11221;-73
2022/05/09 02:27:20;;;;;;;;;18.00;13.75;;;;;;;;5016864;28;11275;-77
2022/05/09 02:29:48;;;;;;;;;18.50;12.50;;;;;;;;5003625;28;11229;-75
2022/05/09 02:32:16;;;;;;;;;12.75;12.00;;;;;;;;5030080;28;11259;-76
2022/05/09 02:34:44;;;;;;;;;11.75;11.50;;;;;;;;5006518;28;11113;-74
2022/05/09 02:37:11;;;;;;;;;16.75;12.75;;;;;;;;5004961;28;11355;-74
2022/05/09 02:39:38;;;;;;;;;9.75;9.75;;;;;;;;5000534;28;11270;-75
2022/05/09 02:42:06;;;;;;;;;14.25;14.25;;;;;;;;5018117;28;11243;-77
2022/05/09 02:44:35;;;;;;;;;8.25;8.25;;;;;;;;5026782;28;11618;-77
2022/05/09 02:47:02;;;;;;;;;13.75;12.00;;;;;;;;5021693;28;11497;-75
2022/05/09 02:49:29;;;;;;;;;11.25;11.25;;;;;;;;5023323;28;11522;-76
2022/05/09 02:51:56;;;;;;;;;12.00;11.50;;;;;;;;5021292;28;11470;-75
2022/05/09 02:54:24;;;;;;;;;15.00;12.50;;;;;;;;5021952;28;11272;-77
2022/05/09 02:56:51;;;;;;;;;14.00;11.75;;;;;;;;5011943;28;11698;-77
2022/05/09 02:59:20;;;;;;;;;9.75;9.75;;;;;;;;5018308;28;11515;-76
2022/05/09 03:01:49;;;;;;;;;14.25;14.25;;;;;;;;5016143;28;12031;-75
2022/05/09 03:07:01;;;;;;;;;17.50;14.25;;;;;;;;5015125;28;11388;-76
2022/05/09 03:09:30;;;;;;;;;13.00;11.00;;;;;;;;5023522;28;11404;-75
2022/05/09 03:11:58;;;;;;;;;10.00;10.00;;;;;;;;5018236;28;11190;-75
2022/05/09 03:14:25;;;;;;;;;11.00;9.50;;;;;;;;5022835;28;12296;-75
2022/05/09 03:16:54;;;;;;;;;12.00;10.25;;;;;;;;5012164;28;11507;-74
2022/05/09 03:19:21;;;;;;;;;12.25;12.25;;;;;;;;5021379;28;11497;-75
2022/05/09 03:21:50;;;;;;;;;12.00;10.00;;;;;;;;5023385;28;11467;-74
2022/05/09 03:24:17;;;;;;;;;12.50;12.50;;;;;;;;5020799;28;11522;-75
2022/05/09 03:26:44;;;;;;;;;13.75;12.25;;;;;;;;5017832;28;12236;-75
2022/05/09 03:29:12;;;;;;;;;16.00;14.00;;;;;;;;5023207;28;11514;-74
2022/05/09 03:31:40;;;;;;;;;12.25;12.25;;;;;;;;5023586;28;11479;-75
2022/05/09 03:34:08;;;;;;;;;14.50;12.75;;;;;;;;5022573;28;11507;-76
2022/05/09 03:36:36;;;;;;;;;13.25;11.25;;;;;;;;5023412;28;11614;-75
2022/05/09 03:39:04;;;;;;;;;18.00;13.00;;;;;;;;4999420;28;12282;-75
2022/05/09 03:41:31;;;;;;;;;15.50;13.25;;;;;;;;5022416;28;11587;-74
2022/05/09 03:43:59;;;;;;;;;16.00;12.00;;;;;;;;5022976;28;11486;-75
2022/05/09 03:46:26;;;;;;;;;12.25;10.50;;;;;;;;5004743;28;11507;-74
2022/05/09 03:48:54;;;;;;;;;10.75;10.75;;;;;;;;5012697;28;13010;-74
2022/05/09 03:51:23;;;;;;;;;11.75;11.75;;;;;;;;5022370;28;12445;-75
2022/05/09 03:53:50;;;;;;;;;13.00;13.00;;;;;;;;5023853;28;11571;-78
2022/05/09 03:56:17;;;;;;;;;9.50;7.75;;;;;;;;5021680;28;11608;-74
2022/05/09 03:58:45;;;;;;;;;13.25;10.75;;;;;;;;5022091;28;11501;-73
2022/05/09 04:01:12;;;;;;;;;13.00;7.50;;;;;;;;5010925;28;11470;-72
2022/05/09 04:03:39;;;;;;;;;12.00;12.00;;;;;;;;5018004;28;12238;-73
2022/05/09 04:06:08;;;;;;;;;15.50;15.50;;;;;;;;5025670;28;11663;-77
2022/05/09 04:08:36;;;;;;;;;16.50;11.75;;;;;;;;5004742;28;11515;-76
2022/05/09 04:11:04;;;;;;;;;11.00;10.00;;;;;;;;5019195;28;11641;-76
2022/05/09 04:13:31;;;;;;;;;14.75;11.50;;;;;;;;5012826;28;11423;-77
2022/05/09 04:18:45;;;;;;;;;16.25;12.25;;;;;;;;4993024;28;12354;-75
2022/05/09 04:21:14;;;;;;;;;16.25;14.25;;;;;;;;5013218;28;11564;-75
2022/05/09 04:23:43;;;;;;;;;16.75;12.00;;;;;;;;5012087;28;11536;-75
2022/05/09 04:26:12;;;;;;;;;17.25;17.25;;;;;;;;5017047;28;11490;-74
2022/05/09 04:28:40;;;;;;;;;20.25;16.00;;;;;;;;5020084;28;11593;-76
2022/05/09 04:31:07;;;;;;;;;15.25;15.25;;;;;;;;5019117;28;11458;-73
2022/05/09 04:33:34;;;;;;;;;16.75;16.75;;;;;;;;5019674;28;11491;-76
2022/05/09 04:36:01;;;;;;;;;8.75;8.75;;;;;;;;5018930;28;11694;-72
2022/05/09 04:38:29;;;;;;;;;16.75;14.00;;;;;;;;5017303;28;11514;-78
2022/05/09 04:40:58;;;;;;;;;19.25;14.50;;;;;;;;5020907;28;11520;-75
2022/05/09 04:43:28;;;;;;;;;16.75;15.50;;;;;;;;5019476;28;12420;-74
2022/05/09 04:45:55;;;;;;;;;16.25;11.50;;;;;;;;5018842;28;11494;-74
2022/05/09 04:48:23;;;;;;;;;13.00;11.75;;;;;;;;5016867;28;11486;-74
2022/05/09 04:50:51;;;;;;;;;14.00;14.00;;;;;;;;5017842;28;11540;-75
2022/05/09 04:53:18;;;;;;;;;16.00;16.00;;;;;;;;5018974;28;11500;-76
2022/05/09 04:55:45;;;;;;;;;13.75;13.75;;;;;;;;5017333;28;11520;-77
2022/05/09 04:58:16;;;;;;;;;15.00;15.00;;;;;;;;5020400;28;11477;-74
2022/05/09 05:00:43;;;;;;;;;12.00;12.00;;;;;;;;5017526;28;11470;-75
2022/05/09 05:03:11;;;;;;;;;19.00;16.00;;;;;;;;5017308;28;11655;-76
2022/05/09 05:05:39;;;;;;;;;20.25;14.00;;;;;;;;5017289;28;11512;-76
2022/05/09 05:08:07;;;;;;;;;17.25;17.25;;;;;;;;5018326;28;11534;-77
2022/05/09 05:10:35;;;;;;;;;9.50;9.00;;;;;;;;5015467;28;11841;-76
2022/05/09 05:13:03;;;;;;;;;22.75;16.75;;;;;;;;5017135;28;11487;-75
2022/05/09 05:15:32;;;;;;;;;26.25;21.00;;;;;;;;5020663;28;11493;-75
2022/05/09 05:18:00;;;;;;;;;17.75;17.75;;;;;;;;5017393;28;11463;-76
2022/05/09 05:20:29;;;;;;;;;17.00;15.00;;;;;;;;5000376;28;12310;-76
2022/05/09 05:22:57;;;;;;;;;16.75;16.00;;;;;;;;5022197;28;11488;-75
2022/05/09 05:25:26;;;;;;;;;18.25;18.25;;;;;;;;5021946;28;11556;-78
2022/05/09 05:27:54;;;;;;;;;23.25;23.25;;;;;;;;5019252;28;11472;-78
2022/05/09 05:30:22;;;;;;;;;19.50;16.50;;;;;;;;5004987;28;11524;-79
2022/05/09 05:32:51;;;;;;;;;17.00;15.50;;;;;;;;5022991;28;11503;-83
2022/05/09 05:35:20;;;;;;;;;23.00;20.50;;;;;;;;5022027;28;11511;-76
2022/05/09 05:37:48;;;;;;;;;24.50;23.50;;;;;;;;5025274;28;11734;-78
2022/05/09 05:40:17;;;;;;;;;24.00;23.50;;;;;;;;5023483;28;11556;-79
2022/05/09 05:42:45;;;;;;;;;18.50;18.50;;;;;;;;4998553;28;11507;-79
2022/05/09 05:45:14;;;;;;;;;17.50;17.50;;;;;;;;5006247;28;11489;-79
2022/05/09 05:47:42;;;;;;;;;21.75;19.00;;;;;;;;4998368;28;11527;-80
2022/05/09 05:50:14;;;;;;;;;20.75;19.25;;;;;;;;5015976;28;11585;-78
2022/05/09 05:52:42;;;;;;;;;17.00;17.00;;;;;;;;5019951;28;11218;-79
2022/05/09 05:55:10;;;;;;;;;19.00;17.50;;;;;;;;5024972;28;11868;-80
2022/05/09 05:57:39;;;;;;;;;17.75;16.25;;;;;;;;5014960;28;10991;-79
2022/05/09 06:00:10;;;;;;;;;14.00;14.00;;;;;;;;5019581;28;10991;-83
2022/05/09 06:02:38;;;;;;;;;17.00;17.00;;;;;;;;5001115;28;10975;-80
2022/05/09 06:05:07;;;;;;;;;16.00;13.50;;;;;;;;5018701;28;11512;-78
2022/05/09 06:07:35;;;;;;;;;17.00;14.50;;;;;;;;5021811;28;10938;-78
2022/05/09 06:10:03;;;;;;;;;19.00;16.75;;;;;;;;5013574;28;10827;-79
2022/05/09 06:12:30;;;;;;;;;17.75;14.75;;;;;;;;5022412;28;10974;-82
2022/05/09 06:17:48;;;;;;;;;17.00;17.00;;;;;;;;5006228;28;10832;-82
2022/05/09 06:20:15;;;;;;;;;18.50;18.00;;;;;;;;5006768;28;10804;-82
2022/05/09 06:22:44;;;;;;;;;18.75;18.75;;;;;;;;5016388;28;10773;-81
2022/05/09 06:25:14;;;;;;;;;15.50;15.50;;;;;;;;5017748;28;10666;-83
2022/05/09 06:27:41;;;;;;;;;17.00;17.00;;;;;;;;5021103;28;10532;-81
2022/05/09 06:30:11;;;;;;;;;15.25;14.75;;;;;;;;5023965;28;10506;-79
2022/05/09 06:32:39;;;;;;;;;16.75;16.75;;;;;;;;4987400;28;10451;-76
2022/05/09 06:35:10;;;;;;;;;17.50;17.50;;;;;;;;5018603;28;10335;-77
2022/05/09 06:37:39;;;;;;;;;17.00;17.00;;;;;;;;5016698;28;10473;-79
2022/05/09 06:40:11;;;;;;;;;24.25;16.50;;;;;;;;5024354;28;10410;-77
2022/05/09 06:42:39;;;;;;;;;16.00;16.00;;;;;;;;5020256;28;10267;-79
2022/05/09 06:45:08;;;;;;;;;17.50;17.25;;;;;;;;5024887;28;10263;-80
2022/05/09 06:47:35;;;;;;;;;20.25;17.50;;;;;;;;5024198;28;10186;-76
2022/05/09 06:50:03;;;;;;;;;16.25;16.25;;;;;;;;5019910;28;10064;-77
2022/05/09 06:52:31;;;;;;;;;14.75;12.50;;;;;;;;5024389;28;10015;-75
2022/05/09 06:54:58;;;;;;;;;15.25;13.00;;;;;;;;5015717;28;9987;-75
2022/05/09 06:57:27;;;;;;;;;15.25;15.25;;;;;;;;5020636;28;9969;-75
2022/05/09 06:59:54;;;;;;;;;16.25;14.25;;;;;;;;5023481;28;9902;-76
2022/05/09 07:02:22;;;;;;;;;15.50;15.50;;;;;;;;5014577;28;9978;-75
2022/05/09 07:04:49;;;;;;;;;16.00;16.00;;;;;;;;5020029;28;9842;-76
2022/05/09 07:07:17;;;;;;;;;18.25;15.75;;;;;;;;5002747;28;9812;-74
2022/05/09 07:09:44;;;;;;;;;16.00;13.00;;;;;;;;5016011;28;9658;-75
2022/05/09 07:12:12;;;;;;;;;13.00;11.00;;;;;;;;5018687;28;9781;-75
2022/05/09 07:14:41;;;;;;;;;18.00;15.50;;;;;;;;5002387;28;9685;-75
2022/05/09 07:17:09;;;;;;;;;16.00;16.00;;;;;;;;5003836;28;9476;-73
2022/05/09 07:19:36;;;;;;;;;17.75;11.25;;;;;;;;5018673;28;9772;-74
2022/05/09 07:22:03;;;;;;;;;15.33;15.00;;;;;;;;5017576;28;11062;-75
2022/05/09 07:24:31;;;;;;;;;15.33;15.33;;;;;;;;5020188;28;9408;-80
2022/05/09 07:26:58;;;;;;;;;17.33;13.67;;;;;;;;5012991;28;9340;-79
2022/05/09 07:29:25;;;;;;;;;20.67;16.33;;;;;;;;5021048;28;9556;-79
2022/05/09 07:31:54;;;;;;;;;17.00;14.33;;;;;;;;5003085;28;9504;-75
2022/05/09 07:34:22;;;;;;;;;14.00;14.00;;;;;;;;5021926;28;9341;-74
2022/05/09 07:36:49;;;;;;;;;14.00;13.00;;;;;;;;5018587;28;9327;-77
2022/05/09 07:39:16;;;;;;;;;15.67;13.00;;;;;;;;5021975;28;9204;-79
2022/05/09 07:41:43;;;;;;;;;17.00;15.00;;;;;;;;5018161;28;9493;-79
2022/05/09 07:44:11;;;;;;;;;14.00;13.33;;;;;;;;5019969;28;9192;-76
2022/05/09 07:46:38;;;;;;;;;14.00;14.00;;;;;;;;5020688;28;9212;-75
2022/05/09 07:49:07;;;;;;;;;11.67;11.67;;;;;;;;5014524;28;9194;-82
2022/05/09 07:51:37;;;;;;;;;10.67;10.67;;;;;;;;5020918;28;8946;-81
2022/05/09 07:54:04;;;;;;;;;12.50;11.00;;;;;;;;5017921;28;9705;-83
2022/05/09 07:56:31;;;;;;;;;15.33;11.33;;;;;;;;5023519;28;8845;-79
2022/05/09 07:58:59;;;;;;;;;12.00;10.75;;;;;;;;5000877;28;8960;-81
2022/05/09 08:01:26;;;;;;;;;10.25;8.25;;;;;;;;5014845;28;9665;-77
2022/05/09 08:03:54;;;;;;;;;12.75;11.50;;;;;;;;5018429;28;8884;-79
2022/05/09 08:06:22;;;;;;;;;16.75;12.00;;;;;;;;5016990;28;8982;-78
2022/05/09 08:08:51;;;;;;;;;8.75;8.75;;;;;;;;5010847;28;9725;-82
2022/05/09 08:11:18;;;;;;;;;13.75;12.50;;;;;;;;4975704;28;8873;-82
2022/05/09 08:13:46;;;;;;;;;9.00;9.00;;;;;;;;5007608;28;9817;-83
2022/05/09 08:16:15;;;;;;;;;7.25;7.25;;;;;;;;4993461;28;8900;-84
2022/05/09 08:18:42;;;;;;;;;13.00;11.00;;;;;;;;5015195;28;8900;-82
2022/05/09 08:21:12;;;;;;;;;12.75;12.25;;;;;;;;5009136;28;8905;-83
2022/05/09 08:23:41;;;;;;;;;11.75;11.75;;;;;;;;5009620;28;9664;-84
2022/05/09 08:26:08;;;;;;;;;12.50;8.50;;;;;;;;5021479;28;8854;-85
2022/05/09 08:28:36;;;;;;;;;13.25;10.25;;;;;;;;5020528;28;8875;-83
2022/05/09 08:31:04;;;;;;;;;11.50;11.50;;;;;;;;5000976;28;9587;-83
2022/05/09 08:33:31;;;;;;;;;12.25;11.25;;;;;;;;5003483;28;9619;-83
2022/05/09 08:36:00;;;;;;;;;17.25;13.75;;;;;;;;5021963;28;8892;-80
2022/05/09 08:38:28;;;;;;;;;10.75;10.75;;;;;;;;5030637;28;8857;-79
2022/05/09 08:41:11;;;;;;;;;13.50;11.00;;;;;;;;5019532;28;8944;-80
2022/05/09 08:43:51;;;;;;;;;16.25;10.50;;;;;;;;5014492;28;9705;-80
2022/05/09 08:46:24;;;;;;;;;11.25;11.25;;;;;;;;5014845;28;9618;-80
2022/05/09 08:49:08;;;;;;;;;12.00;10.75;;;;;;;;5000011;28;8841;-80
2022/05/09 08:51:44;;;;;;;;;12.75;12.75;;;;;;;;5014589;28;8903;-79
2022/05/09 08:54:17;;;;;;;;;16.75;14.50;;;;;;;;5020797;28;8996;-80
2022/05/09 08:56:47;;;;;;;;;10.50;10.50;;;;;;;;5014258;28;8987;-78
2022/05/09 08:59:21;;;;;;;;;13.75;12.50;;;;;;;;4999269;28;8877;-80
2022/05/09 09:01:53;;;;;;;;;14.00;12.25;;;;;;;;5017494;28;8815;-79
2022/05/09 09:04:23;;;;;;;;;11.50;11.50;;;;;;;;5016663;28;8892;-78
2022/05/09 09:07:06;;;;;;;;;12.75;11.50;;;;;;;;5016908;28;8870;-78
2022/05/09 09:09:50;;;;;;;;;10.80;10.60;;;;;;;;5007193;28;8851;-81
2022/05/09 09:12:25;;;;;;;;;11.40;11.40;;;;;;;;5002893;28;9034;-82
2022/05/09 09:15:00;;;;;;;;;9.80;9.80;;;;;;;;5005360;28;8861;-81
2022/05/09 09:17:36;;;;;;;;;13.00;12.00;;;;;;;;5000115;28;8960;-83
2022/05/09 09:20:14;;;;;;;;;12.60;11.00;;;;;;;;5002655;28;8883;-82
2022/05/09 09:22:52;;;;;;;;;12.20;12.20;;;;;;;;4989023;28;8878;-82
2022/05/09 09:25:30;;;;;;;;;13.60;12.20;;;;;;;;4992680;28;8902;-82
2022/05/09 09:28:03;;;;;;;;;13.40;13.40;;;;;;;;4998112;28;8879;-82
2022/05/09 09:30:31;;;;;;;;;13.60;12.40;;;;;;;;4993627;28;8849;-81
2022/05/09 09:33:01;;;;;;;;;15.40;14.40;;;;;;;;5001032;28;8920;-81
2022/05/09 09:35:36;;;;;;;;;12.20;12.20;;;;;;;;5002459;28;8867;-83
2022/05/09 09:38:10;;;;;;;;;13.20;11.40;;;;;;;;5002374;28;8866;-78
2022/05/09 09:40:38;;;;;;;;;12.80;12.80;;;;;;;;5002133;28;8894;-79
2022/05/09 09:43:07;;;;;;;;;10.20;10.20;;;;;;;;5000614;28;9037;-81
2022/05/09 09:45:40;;;;;;;;;11.00;10.40;;;;;;;;5004310;28;8964;-81
2022/05/09 09:48:10;;;;;;;;;10.80;10.80;;;;;;;;4995654;28;9632;-77
2022/05/09 09:50:38;;;;;;;;;5.40;5.00;;;;;;;;5000361;28;8985;-78
2022/05/09 09:53:07;;;;;;;;;14.80;12.60;;;;;;;;4995720;28;8903;-82
2022/05/09 09:55:36;;;;;;;;;13.20;13.20;;;;;;;;4998820;28;8902;-81
2022/05/09 09:58:20;;;;;;;;;14.00;14.00;;;;;;;;4995887;28;9467;-78
2022/05/09 10:00:48;;;;;;;;;16.00;16.00;;;;;;;;5000648;28;8799;-81
2022/05/09 10:03:20;;;;;;;;;10.00;10.00;;;;;;;;4996048;28;8869;-82
2022/05/09 10:05:48;;;;;;;;;11.80;10.00;;;;;;;;5003830;28;8944;-80
2022/05/09 10:08:20;;;;;;;;;14.00;14.00;;;;;;;;4993459;28;8885;-80
2022/05/09 10:11:03;;;;;;;;;9.80;9.80;;;;;;;;4998133;28;8869;-79
2022/05/09 10:13:42;;;;;;;;;13.00;12.00;;;;;;;;4993815;28;8918;-82
2022/05/09 10:16:12;;;;;;;;;14.40;12.80;;;;;;;;5001150;28;8928;-79
2022/05/09 10:18:42;;;;;;;;;16.00;12.80;;;;;;;;5016709;28;8889;-81
2022/05/09 10:24:47;;;;;;;;;13.00;9.80;;;;;;;;5025729;28;8891;-81
2022/05/09 10:26:56;;;;;;;;;11.00;11.00;;;;;;;;5024932;28;8873;-79
2022/05/09 10:29:27;;;;;;;;;15.00;13.60;;;;;;;;5024597;28;9623;-82
2022/05/09 10:31:56;;;;;;;;;16.60;15.40;;;;;;;;5023681;28;8813;-80
2022/05/09 10:34:27;;;;;;;;;13.20;12.60;;;;;;;;5020487;28;8904;-81
2022/05/09 10:36:59;;;;;;;;;12.20;12.20;;;;;;;;5015033;28;8978;-82
2022/05/09 10:39:28;;;;;;;;;16.20;14.40;;;;;;;;5000573;28;8882;-79
2022/05/09 10:42:00;;;;;;;;;14.40;13.00;;;;;;;;5019359;28;8867;-80
2022/05/09 10:44:34;;;;;;;;;11.00;11.00;;;;;;;;5028929;28;8886;-81
2022/05/09 10:47:06;;;;;;;;;16.60;14.80;;;;;;;;5024845;28;8860;-81
2022/05/09 10:49:41;;;;;;;;;11.80;11.80;;;;;;;;5023495;28;8987;-82
2022/05/09 10:52:18;;;;;;;;;9.60;9.60;;;;;;;;5024727;28;8872;-82
2022/05/09 10:54:49;;;;;;;;;11.40;11.40;;;;;;;;5007345;28;8954;-79
2022/05/09 10:57:23;;;;;;;;;11.40;11.40;;;;;;;;5017298;28;8894;-80
2022/05/09 10:59:54;;;;;;;;;14.60;14.60;;;;;;;;5014332;28;9679;-82
2022/05/09 11:02:25;;;;;;;;;17.40;14.40;;;;;;;;5020755;28;8901;-80
2022/05/09 11:04:52;;;;;;;;;13.80;12.20;;;;;;;;5022278;28;8888;-80
2022/05/09 11:07:29;;;;;;;;;13.00;13.00;;;;;;;;5028187;28;8969;-81
2022/05/09 11:10:08;;;;;;;;;15.40;13.80;;;;;;;;5012663;28;8991;-82
2022/05/09 11:12:48;;;;;;;;;13.80;13.60;;;;;;;;5024820;28;8915;-81
2022/05/09 11:15:27;;;;;;;;;17.80;15.40;;;;;;;;5023704;28;8876;-81
2022/05/09 11:18:14;;;;;;;;;13.20;11.80;;;;;;;;5019980;28;8891;-77
2022/05/09 11:20:48;;;;;;;;;16.80;16.20;;;;;;;;5008801;28;8877;-81
2022/05/09 11:23:32;;;;;;;;;16.80;14.80;;;;;;;;5019736;28;8879;-79
2022/05/09 11:26:13;;;;;;;;;15.00;15.00;;;;;;;;5016815;28;8877;-81
2022/05/09 11:29:04;;;;;;;;;16.00;16.00;;;;;;;;5013231;28;8883;-82
2022/05/09 11:31:43;;;;;;;;;16.20;16.00;;;;;;;;5004223;28;8829;-78
2022/05/09 11:34:23;;;;;;;;;17.20;15.20;;;;;;;;5024756;28;8893;-83
2022/05/09 11:37:02;;;;;;;;;13.60;13.60;;;;;;;;5023208;28;8884;-82
2022/05/09 11:39:40;;;;;;;;;17.40;15.00;;;;;;;;5002970;28;8890;-81
2022/05/09 11:45:10;;;;;;;;;17.20;13.80;;;;;;;;5008449;28;9591;-82
2022/05/09 11:47:43;;;;;;;;;17.40;15.80;;;;;;;;5021584;28;8954;-81
2022/05/09 11:50:24;;;;;;;;;14.40;14.00;;;;;;;;5020511;28;8865;-79
2022/05/09 11:52:52;;;;;;;;;12.80;11.20;;;;;;;;5018143;28;8872;-81
2022/05/09 11:55:22;;;;;;;;;15.00;14.20;;;;;;;;5013279;28;8996;-81
2022/05/09 11:57:53;;;;;;;;;9.60;9.60;;;;;;;;5015860;28;8869;-81
2022/05/09 12:00:50;;;;;;;;;13.00;12.60;;;;;;;;4996921;28;9316;-82
2022/05/09 12:04:00;;;;;;;;;13.80;12.00;;;;;;;;4972566;28;8865;-80
2022/05/09 12:06:39;;;;;;;;;11.40;11.40;;;;;;;;5020680;28;8973;-78
2022/05/09 12:09:13;;;;;;;;;15.00;15.00;;;;;;;;5018945;28;8913;-78
2022/05/09 12:11:52;;;;;;;;;10.60;10.60;;;;;;;;5020002;28;8891;-79
2022/05/09 12:14:50;;;;;;;;;14.40;12.60;;;;;;;;5015073;28;8870;-78
2022/05/09 12:17:35;;;;;;;;;12.60;12.60;;;;;;;;5012987;28;8892;-80
2022/05/09 12:20:07;;;;;;;;;14.40;13.20;;;;;;;;5017136;28;9683;-79
2022/05/09 12:22:44;;;;;;;;;11.80;10.40;;;;;;;;5020634;28;8899;-78
2022/05/09 12:25:32;;;;;;;;;13.20;13.20;;;;;;;;5008580;28;8898;-83
2022/05/09 12:28:05;;;;;;;;;13.40;13.40;;;;;;;;5016947;28;8899;-77
2022/05/09 12:30:47;;;;;;;;;13.60;12.20;;;;;;;;5019245;28;8785;-79
2022/05/09 12:33:25;;;;;;;;;7.00;7.00;;;;;;;;5015985;28;10116;-82
2022/05/09 12:35:56;;;;;;;;;11.40;11.40;;;;;;;;5011806;28;8885;-82
2022/05/09 12:38:27;;;;;;;;;13.00;13.00;;;;;;;;5012993;28;8892;-80
2022/05/09 12:41:03;;;;;;;;;10.00;10.00;;;;;;;;5018675;28;8900;-78
2022/05/09 12:43:31;;;;;;;;;10.20;10.20;;;;;;;;5019402;28;8876;-79
2022/05/09 12:46:00;;;;;;;;;12.40;10.20;;;;;;;;5001951;28;8895;-75
2022/05/09 12:48:27;;;;;;;;;11.80;11.80;;;;;;;;5017808;28;9451;-82
2022/05/09 12:50:56;;;;;;;;;7.80;7.80;;;;;;;;5014548;28;8861;-77
2022/05/09 12:53:23;;;;;;;;;11.80;11.20;;;;;;;;5012553;28;8879;-84
2022/05/09 12:55:56;;;;;;;;;10.00;10.00;;;;;;;;5017121;28;8871;-85
2022/05/09 12:58:32;;;;;;;;;12.20;11.80;;;;;;;;5010926;28;8861;-78
2022/05/09 13:01:05;;;;;;;;;9.00;9.00;;;;;;;;5006284;28;8771;-81
2022/05/09 13:03:32;;;;;;;;;11.60;10.60;;;;;;;;5008487;28;8893;-82
2022/05/09 13:06:14;;;;;;;;;14.00;12.40;;;;;;;;5021348;28;8890;-78
2022/05/09 13:08:42;;;;;;;;;10.20;10.20;;;;;;;;5014278;28;8883;-82
2022/05/09 13:11:15;;;;;;;;;13.20;11.40;;;;;;;;5019416;28;8896;-82
2022/05/09 13:13:47;;;;;;;;;12.40;12.40;;;;;;;;5019005;28;8860;-78
2022/05/09 13:16:22;;;;;;;;;13.80;13.00;;;;;;;;5019962;28;8889;-78
2022/05/09 13:18:49;;;;;;;;;12.80;12.40;;;;;;;;5014597;28;8891;-86
2022/05/09 13:21:24;;;;;;;;;11.20;11.00;;;;;;;;5018597;28;8884;-85
2022/05/09 13:23:52;;;;;;;;;12.20;12.20;;;;;;;;5004001;28;9007;-84
2022/05/09 13:26:23;;;;;;;;;13.60;12.00;;;;;;;;5010814;28;8886;-82
2022/05/09 13:28:52;;;;;;;;;11.00;11.00;;;;;;;;5012335;28;8876;-86
2022/05/09 13:31:29;;;;;;;;;12.40;11.40;;;;;;;;5013465;28;8825;-87
2022/05/09 13:33:57;;;;;;;;;12.20;12.00;;;;;;;;5005770;28;8875;-85
2022/05/09 13:36:36;;;;;;;;;11.00;11.00;;;;;;;;5014420;28;8882;-83
2022/05/09 13:39:05;;;;;;;;;12.80;10.00;;;;;;;;5018298;28;9599;-79
2022/05/09 13:41:32;;;;;;;;;9.20;9.20;;;;;;;;5014600;28;8917;-82
2022/05/09 13:44:01;;;;;;;;;9.00;9.00;;;;;;;;5023129;28;8862;-79
2022/05/09 13:46:32;;;;;;;;;13.80;13.80;;;;;;;;5016641;28;9516;-79
2022/05/09 13:49:02;;;;;;;;;10.40;10.40;;;;;;;;5020547;28;11051;-80
2022/05/09 13:51:32;;;;;;;;;12.40;12.40;;;;;;;;5021104;28;8968;-81
2022/05/09 13:54:02;;;;;;;;;9.00;9.00;;;;;;;;5023919;28;8907;-81
2022/05/09 13:56:32;;;;;;;;;9.00;9.00;;;;;;;;5023968;28;8900;-80
2022/05/09 13:59:02;;;;;;;;;8.20;8.20;;;;;;;;5022676;28;9006;-77
2022/05/09 14:01:41;;;;;;;;;7.80;7.80;;;;;;;;5023160;28;8802;-81
2022/05/09 14:04:09;;;;;;;;;9.20;9.20;;;;;;;;5021523;28;8887;-81
2022/05/09 14:06:39;;;;;;;;;10.00;10.00;;;;;;;;5023592;28;8879;-84
2022/05/09 14:09:10;;;;;;;;;11.00;9.20;;;;;;;;5018894;28;9673;-81
2022/05/09 14:11:39;;;;;;;;;11.60;10.80;;;;;;;;5024979;28;8897;-85
2022/05/09 14:14:08;;;;;;;;;11.40;10.80;;;;;;;;5020398;28;8896;-86
2022/05/09 14:16:41;;;;;;;;;11.00;9.00;;;;;;;;5025234;28;8917;-84
2022/05/09 14:19:19;;;;;;;;;10.60;10.60;;;;;;;;5022499;28;8899;-83
2022/05/09 14:21:57;;;;;;;;;8.60;8.60;;;;;;;;5016589;28;8868;-83
2022/05/09 14:24:26;;;;;;;;;10.60;9.60;;;;;;;;5004108;28;8880;-82
2022/05/09 14:29:43;;;;;;;;;10.80;10.80;;;;;;;;5024907;28;8861;-81
2022/05/09 14:32:11;;;;;;;;;9.20;9.20;;;;;;;;5025070;28;8825;-82
2022/05/09 14:34:50;;;;;;;;;10.80;10.80;;;;;;;;5011153;28;8901;-84
2022/05/09 14:37:34;;;;;;;;;12.80;7.80;;;;;;;;5022179;28;9003;-80
2022/05/09 14:40:16;;;;;;;;;7.20;7.20;;;;;;;;5018553;28;8895;-81
2022/05/09 14:42:55;;;;;;;;;8.80;8.80;;;;;;;;5003372;28;8875;-85
2022/05/09 14:45:26;;;;;;;;;11.00;11.00;;;;;;;;5011043;28;8865;-82
2022/05/09 14:47:58;;;;;;;;;10.40;9.20;;;;;;;;5015733;28;8892;-81
2022/05/09 14:50:29;;;;;;;;;8.20;8.20;;;;;;;;5021633;28;8877;-81
2022/05/09 14:53:01;;;;;;;;;9.40;9.40;;;;;;;;5007608;28;8875;-79
2022/05/09 14:58:34;;;;;;;;;12.80;12.60;;;;;;;;5017628;28;8840;-82
2022/05/09 15:01:03;;;;;;;;;9.80;8.40;;;;;;;;5023447;28;8797;-79
2022/05/09 15:03:33;;;;;;;;;11.80;11.80;;;;;;;;5011161;28;9608;-81
2022/05/09 15:06:01;;;;;;;;;8.40;8.40;;;;;;;;5023298;28;9033;-87
2022/05/09 15:08:29;;;;;;;;;8.40;8.40;;;;;;;;5017858;28;8880;-80
2022/05/09 15:10:58;;;;;;;;;10.60;8.00;;;;;;;;5018987;28;8970;-79
2022/05/09 15:13:27;;;;;;;;;9.60;9.00;;;;;;;;5017823;28;9449;-81